Time,TemperatureF,DewpointF,PressureIn,WindDirection,WindDirectionDegrees,WindSpeedMPH,WindSpeedGustMPH,Humidity,HourlyPrecipIn,Conditions,Clouds,dailyrainin,SoftwareType,DateUTC
2013-06-02 00:06:00,78.0,69.0,29.91,SSE,156,0.0,3.0,73,0.00,,,0.00,weatherlink.com 1.10,2013-06-02 04:06:00,
2013-06-02 00:21:00,78.6,69.0,29.90,West,267,0.0,5.0,72,0.00,,,0.00,weatherlink.com 1.10,2013-06-02 04:21:00,
2013-06-02 00:36:00,78.4,69.0,29.89,SSE,155,2.0,5.0,73,0.00,,,0.00,weatherlink.com 1.10,2013-06-02 04:36:00,
2013-06-02 00:51:00,78.2,69.0,29.89,SW,222,1.0,4.0,73,0.00,,,0.00,weatherlink.com 1.10,2013-06-02 04:51:00,
2013-06-02 01:06:00,78.3,69.0,29.89,WSW,255,0.0,4.0,73,0.00,,,0.00,weatherlink.com 1.10,2013-06-02 05:06:00,
2013-06-02 01:21:00,77.5,69.0,29.89,NNW,338,0.0,4.0,75,0.00,,,0.00,weatherlink.com 1.10,2013-06-02 05:21:00,
2013-06-02 01:36:00,77.2,69.0,29.89,West,274,1.0,4.0,75,0.00,,,0.00,weatherlink.com 1.10,2013-06-02 05:36:00,
2013-06-02 01:51:00,77.2,69.0,29.89,SW,229,0.0,7.0,75,0.00,,,0.00,weatherlink.com 1.10,2013-06-02 05:51:00,
2013-06-02 02:06:00,77.0,69.0,29.88,WNW,300,1.0,4.0,75,0.00,,,0.00,weatherlink.com 1.10,2013-06-02 06:06:00,
2013-06-02 02:21:00,76.7,68.0,29.88,West,264,0.0,5.0,75,0.00,,,0.00,weatherlink.com 1.10,2013-06-02 06:21:00,
2013-06-02 02:36:00,76.6,68.0,29.87,SW,217,2.0,5.0,75,0.00,,,0.00,weatherlink.com 1.10,2013-06-02 06:36:00,
2013-06-02 02:51:00,76.6,68.0,29.87,NW,318,2.0,5.0,75,0.00,,,0.00,weatherlink.com 1.10,2013-06-02 06:51:00,
2013-06-02 03:06:00,76.2,68.0,29.86,SE,136,0.0,4.0,75,0.00,,,0.00,weatherlink.com 1.10,2013-06-02 07:06:00,
2013-06-02 03:21:00,75.9,67.0,29.86,SW,214,0.0,7.0,75,0.00,,,0.00,weatherlink.com 1.10,2013-06-02 07:21:00,
2013-06-02 03:36:00,75.8,67.0,29.87,SSE,160,2.0,9.0,75,0.00,,,0.00,weatherlink.com 1.10,2013-06-02 07:36:00,
2013-06-02 03:51:00,75.5,67.0,29.87,ESE,122,1.0,6.0,76,0.00,,,0.00,weatherlink.com 1.10,2013-06-02 07:51:00,
2013-06-02 04:06:00,75.3,67.0,29.86,SE,146,0.0,5.0,76,0.00,,,0.00,weatherlink.com 1.10,2013-06-02 08:06:00,
2013-06-02 04:21:00,75.5,67.0,29.86,West,263,0.0,4.0,76,0.00,,,0.00,weatherlink.com 1.10,2013-06-02 08:21:00,
2013-06-02 04:36:00,74.9,67.0,29.86,West,266,1.0,3.0,77,0.00,,,0.00,weatherlink.com 1.10,2013-06-02 08:36:00,
2013-06-02 04:51:00,74.8,67.0,29.86,WNW,300,0.0,4.0,77,0.00,,,0.00,weatherlink.com 1.10,2013-06-02 08:51:00,
2013-06-02 05:06:00,74.8,67.0,29.86,WNW,284,0.0,3.0,77,0.00,,,0.00,weatherlink.com 1.10,2013-06-02 09:06:00,
2013-06-02 05:21:00,74.5,67.0,29.86,West,280,1.0,6.0,78,0.00,,,0.00,weatherlink.com 1.10,2013-06-02 09:21:00,
2013-06-02 05:36:00,74.6,67.0,29.86,SW,232,0.0,6.0,78,0.00,,,0.00,weatherlink.com 1.10,2013-06-02 09:36:00,
2013-06-02 05:51:00,74.7,67.0,29.86,SE,131,0.0,6.0,78,0.00,,,0.00,weatherlink.com 1.10,2013-06-02 09:51:00,
2013-06-02 06:06:00,74.5,68.0,29.85,SW,215,2.0,6.0,79,0.00,,,0.00,weatherlink.com 1.10,2013-06-02 10:06:00,
2013-06-02 06:21:00,74.8,68.0,29.86,SSW,204,9.0,9.0,78,0.00,,,0.00,weatherlink.com 1.10,2013-06-02 10:21:00,
2013-06-02 06:36:00,75.3,68.0,29.85,SE,142,3.0,6.0,77,0.00,,,0.00,weatherlink.com 1.10,2013-06-02 10:36:00,
2013-06-02 06:51:00,75.9,68.0,29.86,WSW,248,1.0,5.0,76,0.00,,,0.00,weatherlink.com 1.10,2013-06-02 10:51:00,
2013-06-02 07:06:00,77.0,68.0,29.86,SW,233,2.0,7.0,74,0.00,,,0.00,weatherlink.com 1.10,2013-06-02 11:06:00,
2013-06-02 07:21:00,77.3,68.0,29.86,ESE,120,1.0,7.0,73,0.00,,,0.00,weatherlink.com 1.10,2013-06-02 11:21:00,
2013-06-02 07:36:00,77.7,68.0,29.86,West,266,1.0,8.0,71,0.00,,,0.00,weatherlink.com 1.10,2013-06-02 11:36:00,
2013-06-02 07:51:00,78.6,68.0,29.86,WNW,295,0.0,11.0,70,0.00,,,0.00,weatherlink.com 1.10,2013-06-02 11:51:00,
2013-06-02 08:06:00,79.1,68.0,29.86,WSW,248,3.0,7.0,69,0.00,,,0.00,weatherlink.com 1.10,2013-06-02 12:06:00,
2013-06-02 08:22:00,79.8,68.0,29.85,West,271,0.0,7.0,68,0.00,,,0.00,weatherlink.com 1.10,2013-06-02 12:22:00,
2013-06-02 08:37:00,80.3,68.0,29.85,SSW,200,5.0,7.0,67,0.00,,,0.00,weatherlink.com 1.10,2013-06-02 12:37:00,
2013-06-02 08:52:00,81.2,69.0,29.85,WSW,256,6.0,7.0,66,0.00,,,0.00,weatherlink.com 1.10,2013-06-02 12:52:00,
2013-06-02 09:07:00,81.6,68.0,29.84,WSW,237,1.0,9.0,64,0.00,,,0.00,weatherlink.com 1.10,2013-06-02 13:07:00,
2013-06-02 09:22:00,81.9,68.0,29.84,NE,46,4.0,8.0,63,0.00,,,0.00,weatherlink.com 1.10,2013-06-02 13:22:00,
2013-06-02 09:37:00,82.0,68.0,29.84,SW,233,2.0,10.0,63,0.00,,,0.00,weatherlink.com 1.10,2013-06-02 13:37:00,
2013-06-02 09:52:00,83.5,69.0,29.82,ESE,117,2.0,7.0,61,0.00,,,0.00,weatherlink.com 1.10,2013-06-02 13:52:00,
2013-06-02 10:07:00,84.6,69.0,29.83,NW,314,3.0,7.0,60,0.00,,,0.00,weatherlink.com 1.10,2013-06-02 14:07:00,
2013-06-02 10:22:00,84.9,69.0,29.82,West,280,3.0,-999.0,60,-99.99,,,0.00,weatherlink.com 1.10,2013-06-02 14:22:00,
2013-06-02 10:37:00,85.1,69.0,29.82,NW,309,1.0,10.0,59,0.00,,,0.00,weatherlink.com 1.10,2013-06-02 14:37:00,
2013-06-02 10:52:00,86.4,69.0,29.83,SSW,195,4.0,10.0,56,0.00,,,0.00,weatherlink.com 1.10,2013-06-02 14:52:00,
2013-06-02 11:07:00,87.0,69.0,29.82,WNW,294,6.0,8.0,55,0.00,,,0.00,weatherlink.com 1.10,2013-06-02 15:07:00,
2013-06-02 11:22:00,87.5,69.0,29.82,SW,221,6.0,11.0,54,0.00,,,0.00,weatherlink.com 1.10,2013-06-02 15:22:00,
2013-06-02 11:37:00,88.3,68.0,29.82,WSW,255,2.0,8.0,52,0.00,,,0.00,weatherlink.com 1.10,2013-06-02 15:37:00,
2013-06-02 11:53:00,88.6,69.0,29.82,SSE,162,2.0,11.0,52,0.00,,,0.00,weatherlink.com 1.10,2013-06-02 15:53:00,
2013-06-02 12:07:00,87.0,69.0,29.82,West,281,1.0,8.0,55,0.00,,,0.00,weatherlink.com 1.10,2013-06-02 16:07:00,
2013-06-02 12:22:00,86.1,69.0,29.82,WNW,293,2.0,12.0,56,0.00,,,0.00,weatherlink.com 1.10,2013-06-02 16:22:00,
2013-06-02 12:37:00,85.9,68.0,29.82,West,275,1.0,6.0,56,0.00,,,0.00,weatherlink.com 1.10,2013-06-02 16:37:00,
2013-06-02 12:52:00,86.6,69.0,29.82,South,188,3.0,8.0,55,0.00,,,0.00,weatherlink.com 1.10,2013-06-02 16:52:00,
2013-06-02 13:15:00,89.5,68.0,29.80,SSE,162,2.0,9.0,50,0.00,,,0.00,weatherlink.com 1.10,2013-06-02 17:15:00,
2013-06-02 13:22:00,89.4,69.0,29.80,NNW,347,4.0,9.0,51,0.00,,,0.00,weatherlink.com 1.10,2013-06-02 17:22:00,
2013-06-02 13:37:00,89.5,68.0,29.80,WNW,294,10.0,11.0,50,0.00,,,0.00,weatherlink.com 1.10,2013-06-02 17:37:00,
2013-06-02 13:52:00,90.4,69.0,29.79,SE,132,3.0,7.0,49,0.00,,,0.00,weatherlink.com 1.10,2013-06-02 17:52:00,
2013-06-02 14:07:00,90.8,69.0,29.79,ESE,117,2.0,10.0,49,0.00,,,0.00,weatherlink.com 1.10,2013-06-02 18:07:00,
2013-06-02 14:22:00,91.8,69.0,29.79,SW,214,9.0,11.0,47,0.00,,,0.00,weatherlink.com 1.10,2013-06-02 18:22:00,
2013-06-02 14:37:00,91.5,69.0,29.78,East,88,4.0,10.0,47,0.00,,,0.00,weatherlink.com 1.10,2013-06-02 18:37:00,
2013-06-02 14:52:00,90.4,68.0,29.78,WSW,256,5.0,7.0,47,0.00,,,0.00,weatherlink.com 1.10,2013-06-02 18:52:00,
2013-06-02 15:07:00,90.4,68.0,29.78,SE,125,3.0,6.0,48,0.00,,,0.00,weatherlink.com 1.10,2013-06-02 19:07:00,
2013-06-02 15:22:00,89.7,67.0,29.77,ESE,116,2.0,8.0,48,0.00,,,0.00,weatherlink.com 1.10,2013-06-02 19:22:00,
2013-06-02 15:37:00,89.2,67.0,29.77,East,82,2.0,7.0,48,0.00,,,0.00,weatherlink.com 1.10,2013-06-02 19:37:00,
2013-06-02 15:52:00,89.0,67.0,29.77,SE,135,2.0,7.0,49,0.00,,,0.00,weatherlink.com 1.10,2013-06-02 19:52:00,
2013-06-02 16:07:00,88.7,68.0,29.77,SSW,200,4.0,6.0,50,0.00,,,0.00,weatherlink.com 1.10,2013-06-02 20:07:00,
2013-06-02 16:22:00,88.9,67.0,29.77,SE,132,2.0,7.0,49,0.00,,,0.00,weatherlink.com 1.10,2013-06-02 20:22:00,
2013-06-02 16:38:00,87.0,67.0,29.76,South,172,4.0,9.0,51,0.00,,,0.00,weatherlink.com 1.10,2013-06-02 20:38:00,
2013-06-02 16:53:00,87.7,67.0,29.76,ESE,118,2.0,6.0,50,0.00,,,0.00,weatherlink.com 1.10,2013-06-02 20:53:00,
2013-06-02 17:08:00,89.4,67.0,29.76,South,191,2.0,7.0,48,0.00,,,0.00,weatherlink.com 1.10,2013-06-02 21:08:00,
2013-06-02 17:23:00,88.6,67.0,29.76,SE,143,4.0,7.0,49,0.00,,,0.00,weatherlink.com 1.10,2013-06-02 21:23:00,
2013-06-02 17:38:00,85.9,66.0,29.76,SSE,165,4.0,12.0,52,0.00,,,0.00,weatherlink.com 1.10,2013-06-02 21:38:00,
2013-06-02 17:53:00,86.6,65.0,29.76,West,260,0.0,7.0,49,0.00,,,0.00,weatherlink.com 1.10,2013-06-02 21:53:00,
2013-06-02 18:08:00,87.3,65.0,29.76,SSE,168,2.0,7.0,47,0.00,,,0.00,weatherlink.com 1.10,2013-06-02 22:08:00,
2013-06-02 18:23:00,87.3,64.0,29.77,West,272,1.0,9.0,46,0.00,,,0.00,weatherlink.com 1.10,2013-06-02 22:23:00,
2013-06-02 18:38:00,86.7,64.0,29.76,WNW,295,2.0,11.0,47,0.00,,,0.00,weatherlink.com 1.10,2013-06-02 22:38:00,
2013-06-02 18:53:00,86.3,65.0,29.77,West,271,5.0,9.0,49,0.00,,,0.00,weatherlink.com 1.10,2013-06-02 22:53:00,
2013-06-02 19:08:00,86.1,65.0,29.77,NNE,22,3.0,9.0,50,0.00,,,0.00,weatherlink.com 1.10,2013-06-02 23:08:00,
2013-06-02 19:23:00,85.2,66.0,29.77,South,170,3.0,12.0,52,0.00,,,0.00,weatherlink.com 1.10,2013-06-02 23:23:00,
2013-06-02 19:38:00,84.0,68.0,29.78,SSE,158,1.0,6.0,59,0.00,,,0.00,weatherlink.com 1.10,2013-06-02 23:38:00,
2013-06-02 19:53:00,83.5,69.0,29.78,SE,132,1.0,4.0,61,0.00,,,0.00,weatherlink.com 1.10,2013-06-02 23:53:00,
2013-06-02 20:09:00,83.0,70.0,29.78,South,190,4.0,5.0,64,0.00,,,0.00,weatherlink.com 1.10,2013-06-03 00:09:00,
2013-06-02 20:38:00,82.5,70.0,29.79,ENE,57,0.0,5.0,65,0.00,,,0.00,weatherlink.com 1.10,2013-06-03 00:38:00,
2013-06-02 20:53:00,82.2,70.0,29.80,WSW,246,1.0,5.0,66,0.00,,,0.00,weatherlink.com 1.10,2013-06-03 00:53:00,
2013-06-02 21:08:00,81.6,69.0,29.80,SW,214,3.0,6.0,66,0.00,,,0.00,weatherlink.com 1.10,2013-06-03 01:08:00,
2013-06-02 21:23:00,80.2,67.0,29.80,WSW,255,0.0,7.0,65,0.00,,,0.00,weatherlink.com 1.10,2013-06-03 01:23:00,
2013-06-02 21:38:00,79.9,66.0,29.80,SSW,210,4.0,8.0,62,0.00,,,0.00,weatherlink.com 1.10,2013-06-03 01:38:00,
2013-06-02 21:53:00,79.5,66.0,29.80,South,182,1.0,7.0,63,0.00,,,0.00,weatherlink.com 1.10,2013-06-03 01:53:00,
2013-06-02 22:08:00,79.6,67.0,29.80,SSE,163,1.0,6.0,65,0.00,,,0.00,weatherlink.com 1.10,2013-06-03 02:08:00,
2013-06-02 22:23:00,80.4,68.0,29.80,East,89,1.0,6.0,66,0.00,,,0.00,weatherlink.com 1.10,2013-06-03 02:23:00,
2013-06-02 22:38:00,80.1,69.0,29.81,SSW,194,6.0,6.0,69,0.00,,,0.00,weatherlink.com 1.10,2013-06-03 02:38:00,
2013-06-02 22:53:00,77.6,70.0,29.81,WNW,285,1.0,11.0,76,0.01,,,0.01,weatherlink.com 1.10,2013-06-03 02:53:00,
2013-06-02 23:08:00,76.2,71.0,29.81,ESE,105,1.0,4.0,84,0.02,,,0.02,weatherlink.com 1.10,2013-06-03 03:08:00,
2013-06-02 23:23:00,75.6,71.0,29.81,NW,304,1.0,3.0,84,0.02,,,0.02,weatherlink.com 1.10,2013-06-03 03:23:00,
2013-06-02 23:38:00,74.7,69.0,29.82,West,274,3.0,13.0,82,0.04,,,0.04,weatherlink.com 1.10,2013-06-03 03:38:00,
2013-06-02 23:53:00,73.5,68.0,29.82,NW,304,3.0,10.0,83,0.04,,,0.05,weatherlink.com 1.10,2013-06-03 03:53:00,